Time;durP1;ratioP1;P1;durP2;ratioP2;P2;SDS_P1;SDS_P2;PMS_P1;PMS_P2;Temp;Humidity;BMP_temperature;BMP_pressure;BME280_temperature;BME280_humidity;BME280_pressure;Samples;Min_cycle;Max_cycle;Signal;HPM_P1;HPM_P2
2022/03/09 00:02:22;;;;;;;16.55;9.02;;;;;;;;;;4986477;28;20061;-69
2022/03/09 00:04:49;;;;;;;15.30;8.93;;;;;;;;;;4989026;28;20053;-69
2022/03/09 00:07:15;;;;;;;17.00;9.18;;;;;;;;;;4989951;28;20050;-74
2022/03/09 00:09:41;;;;;;;19.60;8.73;;;;;;;;;;4984214;28;20054;-69
2022/03/09 00:12:08;;;;;;;14.35;8.90;;;;;;;;;;4989646;28;20045;-69
2022/03/09 00:14:34;;;;;;;15.98;8.48;;;;;;;;;;4975934;28;20058;-69
2022/03/09 00:17:01;;;;;;;13.45;8.85;;;;;;;;;;4985363;28;20061;-70
2022/03/09 00:19:27;;;;;;;23.25;9.48;;;;;;;;;;4991168;28;20471;-70
2022/03/09 00:21:53;;;;;;;16.10;9.55;;;;;;;;;;4981751;28;20492;-69
2022/03/09 00:24:20;;;;;;;15.57;8.73;;;;;;;;;;4990673;28;20049;-70
2022/03/09 00:26:47;;;;;;;16.08;8.77;;;;;;;;;;4984741;28;20082;-70
2022/03/09 00:29:13;;;;;;;15.80;8.70;;;;;;;;;;4997624;28;20295;-70
2022/03/09 00:31:39;;;;;;;17.95;9.10;;;;;;;;;;4975880;28;20101;-70
2022/03/09 00:34:06;;;;;;;17.48;8.80;;;;;;;;;;4985336;28;20105;-69
2022/03/09 00:36:32;;;;;;;15.32;8.07;;;;;;;;;;4989338;28;20066;-70
2022/03/09 00:38:59;;;;;;;14.77;8.98;;;;;;;;;;4985041;28;20081;-70
2022/03/09 00:41:25;;;;;;;14.48;8.65;;;;;;;;;;4982760;28;20051;-70
2022/03/09 00:43:51;;;;;;;15.75;9.77;;;;;;;;;;4976450;28;20088;-70
2022/03/09 00:46:18;;;;;;;19.70;10.05;;;;;;;;;;5007723;28;20050;-70
2022/03/09 00:48:44;;;;;;;16.65;9.95;;;;;;;;;;4980466;28;20047;-69
2022/03/09 00:51:10;;;;;;;16.85;9.23;;;;;;;;;;4989113;28;20058;-70
2022/03/09 00:53:37;;;;;;;15.32;8.77;;;;;;;;;;4990278;28;20043;-70
2022/03/09 00:56:03;;;;;;;14.23;8.18;;;;;;;;;;4978082;28;20527;-70
2022/03/09 00:58:30;;;;;;;15.40;9.20;;;;;;;;;;4985195;28;20046;-69
2022/03/09 01:00:57;;;;;;;14.30;8.65;;;;;;;;;;4980594;28;20061;-70
2022/03/09 01:03:23;;;;;;;15.55;8.23;;;;;;;;;;4989577;28;20483;-70
2022/03/09 01:05:50;;;;;;;14.57;9.10;;;;;;;;;;4980571;28;20042;-71
2022/03/09 01:08:16;;;;;;;15.25;8.25;;;;;;;;;;4990950;28;20058;-71
2022/03/09 01:10:42;;;;;;;14.65;8.65;;;;;;;;;;4983035;28;20483;-70
2022/03/09 01:13:09;;;;;;;14.70;8.73;;;;;;;;;;4981235;28;20054;-71
2022/03/09 01:15:35;;;;;;;13.70;8.32;;;;;;;;;;4985940;28;20051;-71
2022/03/09 01:18:01;;;;;;;15.93;8.73;;;;;;;;;;4975092;28;20050;-71
2022/03/09 01:20:28;;;;;;;17.13;9.32;;;;;;;;;;4984402;28;20117;-71
2022/03/09 01:22:54;;;;;;;14.18;7.95;;;;;;;;;;4971399;28;20046;-71
2022/03/09 01:25:21;;;;;;;17.63;8.73;;;;;;;;;;4996061;28;20057;-71
2022/03/09 01:27:47;;;;;;;14.15;8.40;;;;;;;;;;4992606;28;20042;-71
2022/03/09 01:30:13;;;;;;;15.10;9.02;;;;;;;;;;4983236;28;20049;-71
2022/03/09 01:32:40;;;;;;;17.45;8.65;;;;;;;;;;4988717;28;20039;-71
2022/03/09 01:35:06;;;;;;;15.57;8.63;;;;;;;;;;4982980;28;20114;-71
2022/03/09 01:37:33;;;;;;;16.75;8.85;;;;;;;;;;4986423;28;20077;-70
2022/03/09 01:39:59;;;;;;;17.15;9.00;;;;;;;;;;4979365;28;20046;-70
2022/03/09 01:42:25;;;;;;;16.25;9.48;;;;;;;;;;4993658;28;20042;-70
2022/03/09 01:44:52;;;;;;;14.13;8.50;;;;;;;;;;4997371;28;20047;-70
2022/03/09 01:47:18;;;;;;;19.67;8.85;;;;;;;;;;4989236;28;20042;-70
2022/03/09 01:49:45;;;;;;;16.77;8.82;;;;;;;;;;4988717;28;20074;-70
2022/03/09 01:52:11;;;;;;;15.63;9.30;;;;;;;;;;4960811;28;20054;-70
2022/03/09 01:54:39;;;;;;;18.20;8.63;;;;;;;;;;4987220;28;20042;-70
2022/03/09 01:57:05;;;;;;;15.93;8.98;;;;;;;;;;4965534;28;20423;-70
2022/03/09 01:59:32;;;;;;;12.98;7.40;;;;;;;;;;4986171;28;20047;-70
2022/03/09 02:01:58;;;;;;;15.15;9.32;;;;;;;;;;4989812;28;20050;-71
2022/03/09 02:04:25;;;;;;;16.83;8.93;;;;;;;;;;4976926;28;20050;-70
2022/03/09 02:06:51;;;;;;;18.63;9.18;;;;;;;;;;4984388;28;20053;-70
2022/03/09 02:12:03;;;;;;;15.20;8.63;;;;;;;;;;4988567;28;20507;-70
2022/03/09 02:14:30;;;;;;;18.60;8.73;;;;;;;;;;4975895;28;20053;-70
2022/03/09 02:17:01;;;;;;;13.05;8.73;;;;;;;;;;4983453;28;20420;-70
2022/03/09 02:19:28;;;;;;;14.15;8.40;;;;;;;;;;4962603;28;20472;-71
2022/03/09 02:21:58;;;;;;;18.02;9.25;;;;;;;;;;4986289;28;20045;-70
2022/03/09 02:24:25;;;;;;;14.07;8.45;;;;;;;;;;4988531;28;20041;-70
2022/03/09 02:26:51;;;;;;;15.25;9.05;;;;;;;;;;4994493;28;20125;-70
2022/03/09 02:29:17;;;;;;;15.55;8.27;;;;;;;;;;5002396;28;20048;-72
2022/03/09 02:31:44;;;;;;;15.52;8.50;;;;;;;;;;4976395;28;20053;-71
2022/03/09 02:34:10;;;;;;;15.40;9.02;;;;;;;;;;4984043;28;20069;-71
2022/03/09 02:36:36;;;;;;;19.23;9.23;;;;;;;;;;4986512;28;20043;-70
2022/03/09 02:39:02;;;;;;;16.48;9.43;;;;;;;;;;4983606;28;20801;-71
2022/03/09 02:41:33;;;;;;;16.83;8.25;;;;;;;;;;4998453;28;20058;-71
2022/03/09 02:44:00;;;;;;;14.00;8.80;;;;;;;;;;4975384;28;20042;-70
2022/03/09 02:46:27;;;;;;;15.82;8.90;;;;;;;;;;4985041;28;20129;-71
2022/03/09 02:48:54;;;;;;;16.33;8.95;;;;;;;;;;4979727;28;20046;-71
2022/03/09 02:51:20;;;;;;;14.80;8.80;;;;;;;;;;4987817;28;20046;-71
2022/03/09 02:53:48;;;;;;;15.52;9.02;;;;;;;;;;4981369;28;20113;-70
2022/03/09 02:56:15;;;;;;;15.43;8.23;;;;;;;;;;4982226;28;20508;-70
2022/03/09 02:58:45;;;;;;;21.90;8.52;;;;;;;;;;4988490;28;20049;-70
2022/03/09 03:01:13;;;;;;;12.93;8.32;;;;;;;;;;4978928;28;20061;-71
2022/03/09 03:03:42;;;;;;;16.25;8.10;;;;;;;;;;4990960;28;20738;-70
2022/03/09 03:06:09;;;;;;;16.90;8.88;;;;;;;;;;4984473;28;20051;-70
2022/03/09 03:08:37;;;;;;;17.95;8.65;;;;;;;;;;4992244;28;20045;-70
2022/03/09 03:11:05;;;;;;;16.17;8.52;;;;;;;;;;4978530;28;20476;-70
2022/03/09 03:13:31;;;;;;;12.57;7.65;;;;;;;;;;4986637;28;20415;-71
2022/03/09 03:15:57;;;;;;;15.63;8.27;;;;;;;;;;4991175;28;20057;-71
2022/03/09 03:18:24;;;;;;;15.48;8.05;;;;;;;;;;4982013;28;20046;-70
2022/03/09 03:20:54;;;;;;;14.70;8.23;;;;;;;;;;4983740;28;20058;-70
2022/03/09 03:23:22;;;;;;;14.55;8.35;;;;;;;;;;4983401;28;20055;-71
2022/03/09 03:25:49;;;;;;;19.77;9.07;;;;;;;;;;4979213;28;20046;-71
2022/03/09 03:28:16;;;;;;;14.27;9.00;;;;;;;;;;4983513;28;20054;-70
2022/03/09 03:30:42;;;;;;;15.35;7.88;;;;;;;;;;4986419;28;20054;-70
2022/03/09 03:33:09;;;;;;;13.20;8.20;;;;;;;;;;4990189;28;20058;-70
2022/03/09 03:35:36;;;;;;;16.73;8.93;;;;;;;;;;4983756;28;20046;-70
2022/03/09 03:38:02;;;;;;;18.48;8.63;;;;;;;;;;4984043;28;20050;-70
2022/03/09 03:40:28;;;;;;;15.85;8.10;;;;;;;;;;4981243;28;20046;-70
2022/03/09 03:42:55;;;;;;;12.52;8.13;;;;;;;;;;4991684;28;20096;-70
2022/03/09 03:45:21;;;;;;;14.98;8.55;;;;;;;;;;4984033;28;20054;-70
2022/03/09 03:47:47;;;;;;;16.15;8.75;;;;;;;;;;4974946;28;20061;-71
2022/03/09 03:50:14;;;;;;;14.40;8.20;;;;;;;;;;4986819;28;20058;-70
2022/03/09 03:52:40;;;;;;;16.45;9.35;;;;;;;;;;4976185;28;20048;-71
2022/03/09 03:55:07;;;;;;;16.25;8.80;;;;;;;;;;4984047;28;20050;-71
2022/03/09 03:57:33;;;;;;;15.10;8.60;;;;;;;;;;4982123;28;20046;-70
2022/03/09 03:59:59;;;;;;;14.45;8.15;;;;;;;;;;4989875;28;20049;-70
2022/03/09 04:02:26;;;;;;;14.32;8.32;;;;;;;;;;4981952;28;20133;-70
2022/03/09 04:04:52;;;;;;;14.15;8.57;;;;;;;;;;4985888;28;20057;-70
2022/03/09 04:07:19;;;;;;;13.75;8.05;;;;;;;;;;4984601;28;20042;-70
2022/03/09 04:09:46;;;;;;;14.73;8.45;;;;;;;;;;4984369;28;20700;-70
2022/03/09 04:12:12;;;;;;;14.23;8.27;;;;;;;;;;4989416;28;20058;-70
2022/03/09 04:14:38;;;;;;;15.98;8.77;;;;;;;;;;4983369;28;20064;-70
2022/03/09 04:17:05;;;;;;;13.73;8.45;;;;;;;;;;4987870;28;20047;-70
2022/03/09 04:19:31;;;;;;;15.77;8.32;;;;;;;;;;4979184;28;20089;-70
2022/03/09 04:21:57;;;;;;;14.18;8.07;;;;;;;;;;4985672;28;20097;-70
2022/03/09 04:24:24;;;;;;;14.65;9.00;;;;;;;;;;4988277;28;20701;-70
2022/03/09 04:26:50;;;;;;;16.23;8.68;;;;;;;;;;4982780;28;20046;-70
2022/03/09 04:29:16;;;;;;;16.20;9.00;;;;;;;;;;4990991;28;20785;-70
2022/03/09 04:31:43;;;;;;;19.48;9.13;;;;;;;;;;4982560;28;20046;-69
2022/03/09 04:34:09;;;;;;;18.33;8.65;;;;;;;;;;4981845;28;20134;-70
2022/03/09 04:36:36;;;;;;;14.32;8.23;;;;;;;;;;4984524;28;20050;-70
2022/03/09 04:39:03;;;;;;;15.80;8.98;;;;;;;;;;4987711;28;20046;-70
2022/03/09 04:41:29;;;;;;;14.45;8.73;;;;;;;;;;4996334;28;20407;-70
2022/03/09 04:43:56;;;;;;;16.52;7.88;;;;;;;;;;4981422;28;20046;-70
2022/03/09 04:46:23;;;;;;;15.13;8.02;;;;;;;;;;4986025;28;20163;-70
2022/03/09 04:48:49;;;;;;;14.68;8.20;;;;;;;;;;4971267;28;20078;-70
2022/03/09 04:51:16;;;;;;;18.42;8.77;;;;;;;;;;4988655;28;20042;-70
2022/03/09 04:53:42;;;;;;;15.80;7.82;;;;;;;;;;4972906;28;20058;-70
2022/03/09 04:56:09;;;;;;;19.02;8.80;;;;;;;;;;4982072;28;20472;-70
2022/03/09 04:58:35;;;;;;;13.85;7.43;;;;;;;;;;4987465;28;20056;-70
2022/03/09 05:01:01;;;;;;;20.98;10.10;;;;;;;;;;4974716;28;20204;-70
2022/03/09 05:03:30;;;;;;;17.33;10.17;;;;;;;;;;4984682;28;20054;-70
2022/03/09 05:05:57;;;;;;;19.65;9.25;;;;;;;;;;4980460;28;20057;-70
2022/03/09 05:08:23;;;;;;;14.80;8.55;;;;;;;;;;4988161;28;20050;-70
2022/03/09 05:10:49;;;;;;;15.57;8.48;;;;;;;;;;4982078;28;20046;-70
2022/03/09 05:13:16;;;;;;;14.23;7.80;;;;;;;;;;4984701;28;20046;-69
2022/03/09 05:15:42;;;;;;;14.23;8.32;;;;;;;;;;4981801;28;20042;-70
2022/03/09 05:18:09;;;;;;;14.13;7.97;;;;;;;;;;4979521;28;20064;-70
2022/03/09 05:20:35;;;;;;;15.15;8.27;;;;;;;;;;4997562;28;20046;-70
2022/03/09 05:23:02;;;;;;;13.43;7.15;;;;;;;;;;4979210;28;20050;-70
2022/03/09 05:25:29;;;;;;;16.27;7.80;;;;;;;;;;4988540;28;20042;-70
2022/03/09 05:27:56;;;;;;;16.23;8.48;;;;;;;;;;4975358;28;20053;-70
2022/03/09 05:30:22;;;;;;;14.32;8.40;;;;;;;;;;4984458;28;20048;-70
2022/03/09 05:32:48;;;;;;;15.85;8.00;;;;;;;;;;4986849;28;20097;-70
2022/03/09 05:35:14;;;;;;;14.10;8.00;;;;;;;;;;4980738;28;20046;-69
2022/03/09 05:37:42;;;;;;;15.48;8.45;;;;;;;;;;4988105;28;20061;-70
2022/03/09 05:40:09;;;;;;;15.55;9.02;;;;;;;;;;4975438;28;20058;-70
2022/03/09 05:42:35;;;;;;;14.80;8.18;;;;;;;;;;4975297;28;20050;-70
2022/03/09 05:45:02;;;;;;;17.10;9.93;;;;;;;;;;4973341;28;20516;-69
2022/03/09 05:47:45;;;;;;;26.67;13.88;;;;;;;;;;4992628;28;20050;-69
2022/03/09 05:50:12;;;;;;;23.25;10.90;;;;;;;;;;4987353;28;20104;-69
2022/03/09 05:52:38;;;;;;;23.15;9.57;;;;;;;;;;4974865;28;20042;-70
2022/03/09 05:55:05;;;;;;;16.27;8.38;;;;;;;;;;4978019;28;20496;-70
2022/03/09 05:57:31;;;;;;;16.63;8.50;;;;;;;;;;4963285;28;20046;-70
2022/03/09 05:59:57;;;;;;;18.85;9.18;;;;;;;;;;4988501;28;20077;-70
2022/03/09 06:02:24;;;;;;;13.77;8.43;;;;;;;;;;4980039;28;20050;-69
2022/03/09 06:04:50;;;;;;;15.60;8.18;;;;;;;;;;4986726;28;20116;-70
2022/03/09 06:07:16;;;;;;;15.18;8.48;;;;;;;;;;4982407;28;20046;-69
2022/03/09 06:09:44;;;;;;;19.50;8.32;;;;;;;;;;4991345;28;20053;-69
2022/03/09 06:12:10;;;;;;;14.48;8.45;;;;;;;;;;4976461;28;20050;-70
2022/03/09 06:14:36;;;;;;;16.55;8.25;;;;;;;;;;4979047;28;20053;-70
2022/03/09 06:17:03;;;;;;;15.52;7.80;;;;;;;;;;4986116;28;20053;-69
2022/03/09 06:19:29;;;;;;;19.30;7.88;;;;;;;;;;4981597;28;20050;-69
2022/03/09 06:21:55;;;;;;;20.55;8.05;;;;;;;;;;4989241;28;20435;-70
2022/03/09 06:24:22;;;;;;;15.77;8.07;;;;;;;;;;4971944;28;20072;-70
2022/03/09 06:26:48;;;;;;;14.10;6.93;;;;;;;;;;4971899;28;20417;-70
2022/03/09 06:29:15;;;;;;;20.67;7.53;;;;;;;;;;4976513;28;20865;-69
2022/03/09 06:31:43;;;;;;;28.42;8.63;;;;;;;;;;4971250;28;20046;-69
2022/03/09 06:34:09;;;;;;;13.48;7.47;;;;;;;;;;4987132;28;20058;-70
2022/03/09 06:36:36;;;;;;;15.80;7.47;;;;;;;;;;4968863;28;20062;-71
2022/03/09 06:39:03;;;;;;;14.93;7.38;;;;;;;;;;4982477;28;20540;-69
2022/03/09 06:41:29;;;;;;;21.77;8.55;;;;;;;;;;4984873;28;20061;-68
2022/03/09 06:43:57;;;;;;;13.13;7.63;;;;;;;;;;4975321;28;20062;-68
2022/03/09 06:46:23;;;;;;;26.50;8.02;;;;;;;;;;4972497;28;20050;-70
2022/03/09 06:48:50;;;;;;;18.83;7.88;;;;;;;;;;4974802;28;20042;-69
2022/03/09 06:51:16;;;;;;;15.20;7.47;;;;;;;;;;4967553;28;20050;-69
2022/03/09 06:53:44;;;;;;;13.70;7.35;;;;;;;;;;4976422;28;20047;-70
2022/03/09 06:56:10;;;;;;;13.50;7.97;;;;;;;;;;4985685;28;20054;-69
2022/03/09 06:58:37;;;;;;;15.88;7.88;;;;;;;;;;4987546;28;20069;-71
2022/03/09 07:01:03;;;;;;;13.07;7.45;;;;;;;;;;4981218;28;20065;-70
2022/03/09 07:03:30;;;;;;;21.35;8.18;;;;;;;;;;4969745;28;20054;-68
2022/03/09 07:05:57;;;;;;;17.13;7.53;;;;;;;;;;4969807;28;20423;-68
2022/03/09 07:08:23;;;;;;;13.32;7.55;;;;;;;;;;4988310;28;20070;-69
2022/03/09 07:10:50;;;;;;;17.50;8.13;;;;;;;;;;4980001;28;20054;-69
2022/03/09 07:13:16;;;;;;;13.27;7.30;;;;;;;;;;4989628;28;20061;-69
2022/03/09 07:15:42;;;;;;;17.45;7.80;;;;;;;;;;4984933;28;20065;-69
2022/03/09 07:18:09;;;;;;;17.50;7.57;;;;;;;;;;4974205;28;20555;-69
2022/03/09 07:20:35;;;;;;;16.35;7.90;;;;;;;;;;4987860;28;20065;-69
2022/03/09 07:23:01;;;;;;;19.50;8.60;;;;;;;;;;4979713;28;20051;-69
2022/03/09 07:25:27;;;;;;;18.75;6.97;;;;;;;;;;4990531;28;20061;-69
2022/03/09 07:28:02;;;;;;;14.40;8.38;;;;;;;;;;4979434;28;20046;-69
2022/03/09 07:30:28;;;;;;;14.65;7.68;;;;;;;;;;4985272;28;20038;-69
2022/03/09 07:32:56;;;;;;;13.70;7.65;;;;;;;;;;4976370;28;20094;-69
2022/03/09 07:35:22;;;;;;;22.65;8.98;;;;;;;;;;4969392;28;20058;-69
2022/03/09 07:37:51;;;;;;;19.80;7.90;;;;;;;;;;4983727;28;20042;-70
2022/03/09 07:40:17;;;;;;;;;;;;;;;;;;4969979;28;20042;-69
2022/03/09 07:42:44;;;;;;;17.73;8.07;;;;;;;;;;4985795;28;19929;-69
2022/03/09 07:45:10;;;;;;;15.07;7.75;;;;;;;;;;4980324;28;20058;-69
2022/03/09 07:47:36;;;;;;;15.88;8.57;;;;;;;;;;4979360;28;20260;-69
2022/03/09 07:50:04;;;;;;;17.08;8.80;;;;;;;;;;4987251;28;20133;-69
2022/03/09 07:52:31;;;;;;;15.02;8.52;;;;;;;;;;4984911;28;20153;-69
2022/03/09 07:54:57;;;;;;;16.38;8.68;;;;;;;;;;4984977;28;20053;-69
2022/03/09 07:57:23;;;;;;;16.10;9.02;;;;;;;;;;4977784;28;20046;-69
2022/03/09 07:59:50;;;;;;;17.48;8.85;;;;;;;;;;4979152;28;20250;-69
2022/03/09 08:02:16;;;;;;;16.13;8.75;;;;;;;;;;4970759;28;20057;-69
2022/03/09 08:04:42;;;;;;;15.93;9.18;;;;;;;;;;4981897;28;20456;-69
2022/03/09 08:07:09;;;;;;;16.15;8.07;;;;;;;;;;4987120;28;20057;-69
2022/03/09 08:09:36;;;;;;;16.90;7.82;;;;;;;;;;4976677;28;20313;-69
2022/03/09 08:12:03;;;;;;;17.42;8.05;;;;;;;;;;4982932;28;20060;-69
2022/03/09 08:14:29;;;;;;;29.15;9.35;;;;;;;;;;4974634;28;20052;-69
2022/03/09 08:16:55;;;;;;;30.00;9.30;;;;;;;;;;4981233;28;20278;-69
2022/03/09 08:19:22;;;;;;;23.02;10.15;;;;;;;;;;4982871;28;20819;-69
2022/03/09 08:21:48;;;;;;;15.60;7.80;;;;;;;;;;4980418;28;20392;-69
2022/03/09 08:24:14;;;;;;;22.05;9.32;;;;;;;;;;4986246;28;20042;-69
2022/03/09 08:26:40;;;;;;;14.95;7.55;;;;;;;;;;4976783;28;20492;-69
2022/03/09 08:29:07;;;;;;;24.10;8.55;;;;;;;;;;4981174;28;20050;-70
2022/03/09 08:31:33;;;;;;;17.50;8.80;;;;;;;;;;4971717;28;20081;-69
2022/03/09 08:34:06;;;;;;;18.20;8.40;;;;;;;;;;4988325;28;20050;-70
2022/03/09 08:36:32;;;;;;;15.35;8.25;;;;;;;;;;4976390;28;20058;-69
2022/03/09 08:39:00;;;;;;;17.42;8.10;;;;;;;;;;4989898;28;20050;-69
2022/03/09 08:41:26;;;;;;;13.82;7.68;;;;;;;;;;4980626;28;20077;-69
2022/03/09 08:43:53;;;;;;;14.95;7.68;;;;;;;;;;4969408;28;20883;-69
2022/03/09 08:46:19;;;;;;;16.25;8.32;;;;;;;;;;4982927;28;20050;-69
2022/03/09 08:48:46;;;;;;;16.50;8.30;;;;;;;;;;4976138;28;20527;-69
2022/03/09 08:51:13;;;;;;;15.45;7.35;;;;;;;;;;4976441;28;20058;-69
2022/03/09 08:53:40;;;;;;;12.40;7.10;;;;;;;;;;4973308;28;20503;-69
2022/03/09 08:56:10;;;;;;;14.98;7.18;;;;;;;;;;4969724;28;20046;-69
2022/03/09 08:58:37;;;;;;;16.23;8.10;;;;;;;;;;4978581;28;20057;-69
2022/03/09 09:01:03;;;;;;;13.77;7.32;;;;;;;;;;4987622;28;20132;-69
2022/03/09 09:03:30;;;;;;;13.80;7.20;;;;;;;;;;4984544;28;20046;-70
2022/03/09 09:05:56;;;;;;;14.32;7.90;;;;;;;;;;4974736;28;20050;-69
2022/03/09 09:08:23;;;;;;;15.00;7.70;;;;;;;;;;4983586;28;20042;-69
2022/03/09 09:10:49;;;;;;;19.02;8.60;;;;;;;;;;4991645;28;20054;-69
2022/03/09 09:13:16;;;;;;;15.23;8.07;;;;;;;;;;4972288;28;20056;-69
2022/03/09 09:15:42;;;;;;;16.42;8.02;;;;;;;;;;4974774;28;20275;-69
2022/03/09 09:18:09;;;;;;;15.00;8.00;;;;;;;;;;4976308;28;20104;-70
2022/03/09 09:20:51;;;;;;;12.95;7.40;;;;;;;;;;4986396;28;20065;-69
2022/03/09 09:23:18;;;;;;;16.08;7.95;;;;;;;;;;4981267;28;20343;-69
2022/03/09 09:25:45;;;;;;;15.63;7.53;;;;;;;;;;4978460;28;20030;-69
2022/03/09 09:28:11;;;;;;;12.88;7.85;;;;;;;;;;4984075;28;20508;-69
2022/03/09 09:30:38;;;;;;;14.38;7.88;;;;;;;;;;4977950;28;20043;-69
2022/03/09 09:33:04;;;;;;;15.73;8.95;;;;;;;;;;4980481;28;20453;-70
2022/03/09 09:35:31;;;;;;;12.93;6.95;;;;;;;;;;4975893;28;20324;-69
2022/03/09 09:38:06;;;;;;;18.25;8.23;;;;;;;;;;4981279;28;20054;-69
2022/03/09 09:40:43;;;;;;;12.07;8.05;;;;;;;;;;4975824;28;20093;-69
2022/03/09 09:43:11;;;;;;;15.00;8.32;;;;;;;;;;4983858;28;20138;-70
2022/03/09 09:45:38;;;;;;;18.25;8.57;;;;;;;;;;4975695;28;20419;-69
2022/03/09 09:48:05;;;;;;;16.88;9.00;;;;;;;;;;4976318;28;20154;-70
2022/03/09 09:50:32;;;;;;;15.23;8.60;;;;;;;;;;4975998;28;20053;-70
2022/03/09 09:53:01;;;;;;;12.57;7.57;;;;;;;;;;4972942;28;20050;-70
2022/03/09 09:55:28;;;;;;;15.30;7.50;;;;;;;;;;4980964;28;20054;-70
2022/03/09 09:57:54;;;;;;;14.45;8.55;;;;;;;;;;4973943;28;20389;-69
2022/03/09 10:00:21;;;;;;;12.40;7.97;;;;;;;;;;4983376;28;20302;-70
2022/03/09 10:02:47;;;;;;;17.92;9.15;;;;;;;;;;4970362;28;20405;-69
2022/03/09 10:05:15;;;;;;;20.13;8.50;;;;;;;;;;4989995;28;20350;-71
2022/03/09 10:08:01;;;;;;;14.00;7.68;;;;;;;;;;4980455;28;20112;-71
2022/03/09 10:10:27;;;;;;;14.75;8.10;;;;;;;;;;4987212;28;20499;-71
2022/03/09 10:13:16;;;;;;;12.13;7.15;;;;;;;;;;4981716;28;20121;-71
2022/03/09 10:15:46;;;;;;;14.55;8.23;;;;;;;;;;4970300;28;20053;-71
2022/03/09 10:18:20;;;;;;;12.15;7.57;;;;;;;;;;4989893;28;20337;-71
2022/03/09 10:20:48;;;;;;;12.50;7.50;;;;;;;;;;4975491;28;20484;-71
2022/03/09 10:23:15;;;;;;;14.77;7.10;;;;;;;;;;4989931;28;20049;-71
2022/03/09 10:25:42;;;;;;;15.65;8.30;;;;;;;;;;4975000;28;20042;-71
2022/03/09 10:28:10;;;;;;;15.75;8.52;;;;;;;;;;4982800;28;20057;-71
2022/03/09 10:30:39;;;;;;;20.47;9.40;;;;;;;;;;4978007;28;20302;-71
2022/03/09 10:33:06;;;;;;;16.40;7.72;;;;;;;;;;4971996;28;20046;-71
2022/03/09 10:35:32;;;;;;;14.90;8.50;;;;;;;;;;4981153;28;20061;-71
2022/03/09 10:38:00;;;;;;;14.18;7.53;;;;;;;;;;4973717;28;20073;-71
2022/03/09 10:40:27;;;;;;;19.13;8.65;;;;;;;;;;4983240;28;20066;-71
2022/03/09 10:43:12;;;;;;;13.52;7.60;;;;;;;;;;4985402;28;20411;-71
2022/03/09 10:45:56;;;;;;;12.55;8.13;;;;;;;;;;4973609;28;20046;-71
2022/03/09 10:48:23;;;;;;;14.38;8.23;;;;;;;;;;4978654;28;20338;-71
2022/03/09 10:50:53;;;;;;;13.57;8.70;;;;;;;;;;4972740;28;20046;-71
2022/03/09 10:53:19;;;;;;;13.60;8.35;;;;;;;;;;4975919;28;20057;-72
2022/03/09 10:55:45;;;;;;;16.80;9.73;;;;;;;;;;4962588;28;20042;-72
2022/03/09 10:58:15;;;;;;;13.90;8.30;;;;;;;;;;4969966;28;20492;-71
2022/03/09 11:00:43;;;;;;;15.25;8.77;;;;;;;;;;4970273;28;20050;-71
2022/03/09 11:03:15;;;;;;;18.35;9.70;;;;;;;;;;4982226;28;20054;-71
2022/03/09 11:05:50;;;;;;;17.15;8.82;;;;;;;;;;4982639;28;20057;-71
2022/03/09 11:08:18;;;;;;;16.00;9.77;;;;;;;;;;4978657;28;20285;-72
2022/03/09 11:10:48;;;;;;;15.80;9.55;;;;;;;;;;4991274;28;20046;-71
2022/03/09 11:13:15;;;;;;;14.05;8.25;;;;;;;;;;4968450;28;20541;-70
2022/03/09 11:15:44;;;;;;;16.52;9.35;;;;;;;;;;4988294;28;20050;-73
2022/03/09 11:18:18;;;;;;;15.35;8.90;;;;;;;;;;4975692;28;20065;-73
2022/03/09 11:20:45;;;;;;;18.25;10.70;;;;;;;;;;4981509;28;20623;-74
2022/03/09 11:23:12;;;;;;;15.30;9.57;;;;;;;;;;4998148;28;20073;-73
2022/03/09 11:25:47;;;;;;;16.63;9.32;;;;;;;;;;4975187;28;20048;-73
2022/03/09 11:28:20;;;;;;;18.35;10.38;;;;;;;;;;5002422;28;20073;-73
2022/03/09 11:30:56;;;;;;;20.15;10.32;;;;;;;;;;4993136;28;20061;-73
2022/03/09 11:33:35;;;;;;;17.58;9.70;;;;;;;;;;4984869;28;20073;-73
2022/03/09 11:36:03;;;;;;;19.75;10.57;;;;;;;;;;4978002;28;20250;-73
2022/03/09 11:38:33;;;;;;;13.90;8.90;;;;;;;;;;4985045;28;20050;-73
2022/03/09 11:41:26;;;;;;;17.02;10.00;;;;;;;;;;4987354;28;20039;-73
2022/03/09 11:43:53;;;;;;;20.15;10.60;;;;;;;;;;4979607;28;20053;-73
2022/03/09 11:46:19;;;;;;;16.08;9.95;;;;;;;;;;4986370;28;20085;-73
2022/03/09 11:48:49;;;;;;;16.80;10.30;;;;;;;;;;4978334;28;20051;-73
2022/03/09 11:51:15;;;;;;;17.58;10.15;;;;;;;;;;4985235;28;20058;-73
2022/03/09 11:53:46;;;;;;;16.70;9.75;;;;;;;;;;4968840;28;20060;-73
2022/03/09 11:56:26;;;;;;;16.95;10.32;;;;;;;;;;4981342;28;20057;-72
2022/03/09 11:59:11;;;;;;;17.65;10.98;;;;;;;;;;4990125;28;20072;-73
2022/03/09 12:02:00;;;;;;;18.40;10.70;;;;;;;;;;4986249;28;20262;-73
2022/03/09 12:04:42;;;;;;;15.77;10.45;;;;;;;;;;4977488;28;20165;-73
2022/03/09 12:07:09;;;;;;;16.92;10.82;;;;;;;;;;4983148;28;20068;-73
2022/03/09 12:09:54;;;;;;;17.73;11.30;;;;;;;;;;4970046;28;20060;-74
2022/03/09 12:12:20;;;;;;;16.35;10.52;;;;;;;;;;4988145;28;20522;-72
2022/03/09 12:15:04;;;;;;;17.77;11.57;;;;;;;;;;4974390;28;20050;-72
2022/03/09 12:17:37;;;;;;;26.05;11.90;;;;;;;;;;4977894;28;20074;-72
2022/03/09 12:20:23;;;;;;;17.73;11.38;;;;;;;;;;4973610;28;20046;-72
2022/03/09 12:22:59;;;;;;;21.40;12.15;;;;;;;;;;4967283;28;20044;-72
2022/03/09 12:25:37;;;;;;;17.45;10.95;;;;;;;;;;4983332;28;20471;-72
2022/03/09 12:28:23;;;;;;;21.70;12.13;;;;;;;;;;4965568;28;20046;-73
2022/03/09 12:30:53;;;;;;;28.77;12.90;;;;;;;;;;4975960;28;20133;-74
2022/03/09 12:33:25;;;;;;;18.00;12.30;;;;;;;;;;4967731;28;20050;-73
2022/03/09 12:35:52;;;;;;;20.90;12.25;;;;;;;;;;4984022;28;20050;-72
2022/03/09 12:38:36;;;;;;;24.73;12.75;;;;;;;;;;4975667;28;20058;-72
2022/03/09 12:41:03;;;;;;;22.08;12.63;;;;;;;;;;4990711;28;20056;-72
2022/03/09 12:43:48;;;;;;;21.48;13.25;;;;;;;;;;4982986;28;20046;-72
2022/03/09 12:46:15;;;;;;;21.42;13.18;;;;;;;;;;4961174;28;20054;-73
2022/03/09 12:48:41;;;;;;;20.85;12.70;;;;;;;;;;4984561;28;20085;-71
2022/03/09 12:51:11;;;;;;;20.60;13.43;;;;;;;;;;4979364;28;20050;-72
2022/03/09 12:53:37;;;;;;;19.38;13.30;;;;;;;;;;4984003;28;20047;-72
2022/03/09 12:56:13;;;;;;;23.20;13.65;;;;;;;;;;4975178;28;20046;-72
2022/03/09 12:59:09;;;;;;;22.15;13.52;;;;;;;;;;4977881;28;20233;-72
2022/03/09 13:01:36;;;;;;;21.88;13.75;;;;;;;;;;4970756;28;20060;-72
2022/03/09 13:04:03;;;;;;;21.95;13.55;;;;;;;;;;4983968;28;20089;-72
2022/03/09 13:06:31;;;;;;;23.35;14.45;;;;;;;;;;4981097;28;20054;-71
2022/03/09 13:08:58;;;;;;;23.17;13.57;;;;;;;;;;4981851;28;20390;-71
2022/03/09 13:11:26;;;;;;;25.70;15.52;;;;;;;;;;4984440;28;20049;-72
2022/03/09 13:13:53;;;;;;;23.98;13.85;;;;;;;;;;4981827;28;20050;-71
2022/03/09 13:16:22;;;;;;;28.48;14.95;;;;;;;;;;4984697;28;20345;-71
2022/03/09 13:18:48;;;;;;;35.63;15.60;;;;;;;;;;4976496;28;20481;-71
2022/03/09 13:21:16;;;;;;;29.85;15.30;;;;;;;;;;4985750;28;20060;-71
2022/03/09 13:23:44;;;;;;;25.63;15.18;;;;;;;;;;4979959;28;20051;-71
2022/03/09 13:26:18;;;;;;;25.88;14.93;;;;;;;;;;4976711;28;20527;-71
2022/03/09 13:28:48;;;;;;;25.17;13.52;;;;;;;;;;4977943;28;20057;-71
2022/03/09 13:31:16;;;;;;;27.58;15.55;;;;;;;;;;4977046;28;20058;-71
2022/03/09 13:33:42;;;;;;;23.35;13.55;;;;;;;;;;4982383;28;20363;-71
2022/03/09 13:36:13;;;;;;;28.48;15.60;;;;;;;;;;4976881;28;20571;-71
2022/03/09 13:38:42;;;;;;;27.02;15.98;;;;;;;;;;4983425;28;20062;-71
2022/03/09 13:41:09;;;;;;;25.98;15.50;;;;;;;;;;4965816;28;20057;-71
2022/03/09 13:43:36;;;;;;;24.90;15.25;;;;;;;;;;4983164;28;20119;-71
2022/03/09 13:46:17;;;;;;;24.98;14.73;;;;;;;;;;4986747;28;20097;-72
2022/03/09 13:49:06;;;;;;;26.60;16.48;;;;;;;;;;4978340;28;20057;-71
2022/03/09 13:51:32;;;;;;;24.95;15.05;;;;;;;;;;4984133;28;20042;-71
2022/03/09 13:54:03;;;;;;;24.85;15.75;;;;;;;;;;4984918;28;20057;-71
2022/03/09 13:56:31;;;;;;;23.98;13.57;;;;;;;;;;4978114;28;20081;-71
2022/03/09 13:58:57;;;;;;;26.42;16.40;;;;;;;;;;4975448;28;20046;-71
2022/03/09 14:01:28;;;;;;;24.98;15.40;;;;;;;;;;4965935;28;20092;-71
2022/03/09 14:03:59;;;;;;;28.42;15.48;;;;;;;;;;4981243;28;20062;-71
2022/03/09 14:06:26;;;;;;;25.92;15.45;;;;;;;;;;4977528;28;20082;-71
2022/03/09 14:08:53;;;;;;;25.17;15.52;;;;;;;;;;4978425;28;20516;-71
2022/03/09 14:11:20;;;;;;;26.92;15.98;;;;;;;;;;4969967;28;20077;-72
2022/03/09 14:14:04;;;;;;;25.80;15.25;;;;;;;;;;4982377;28;20046;-71
2022/03/09 14:16:32;;;;;;;29.23;16.25;;;;;;;;;;4974839;28;20056;-71
2022/03/09 14:18:59;;;;;;;27.25;16.30;;;;;;;;;;4980801;28;21191;-72
2022/03/09 14:21:28;;;;;;;24.52;15.68;;;;;;;;;;4967276;28;20061;-72
2022/03/09 14:23:57;;;;;;;25.15;15.15;;;;;;;;;;4974340;28;20058;-71
2022/03/09 14:26:27;;;;;;;23.20;14.82;;;;;;;;;;4981110;28;20053;-72
2022/03/09 14:28:55;;;;;;;26.67;16.70;;;;;;;;;;4976375;28;20088;-72
2022/03/09 14:31:23;;;;;;;27.58;16.17;;;;;;;;;;4984065;28;20054;-72
2022/03/09 14:33:50;;;;;;;23.52;14.55;;;;;;;;;;4967047;28;20570;-72
2022/03/09 14:36:17;;;;;;;23.58;14.00;;;;;;;;;;4977030;28;20053;-72
2022/03/09 14:38:43;;;;;;;24.17;15.50;;;;;;;;;;4974036;28;20387;-72